createdAt,value
2018-10-09T00:00:18.572Z,83.92
2018-10-09T00:02:53.102Z,84.17
2018-10-09T00:05:27.832Z,83.96
2018-10-09T00:08:02.373Z,85.00
2018-10-09T00:10:37.288Z,85.40
2018-10-09T00:13:11.612Z,85.84
2018-10-09T00:15:46.742Z,86.18
2018-10-09T00:18:27.169Z,85.97
2018-10-09T00:21:01.543Z,85.95
2018-10-09T00:23:36.437Z,86.21
2018-10-09T00:26:11.557Z,86.29
2018-10-09T00:28:46.275Z,86.60
2018-10-09T00:31:20.832Z,86.70
2018-10-09T00:33:55.540Z,86.47
2018-10-09T00:36:30.155Z,86.80
2018-10-09T00:39:07.000Z,87.69
2018-10-09T00:41:41.704Z,88.05
2018-10-09T00:44:16.787Z,88.05
2018-10-09T00:46:51.858Z,88.10
2018-10-09T00:49:26.409Z,88.24
2018-10-09T00:52:01.580Z,88.30
2018-10-09T00:54:36.430Z,88.53
2018-10-09T00:57:10.911Z,88.28
2018-10-09T00:59:45.647Z,89.04
2018-10-09T01:02:20.107Z,89.52
2018-10-09T01:04:56.067Z,89.13
2018-10-09T01:07:30.666Z,89.32
2018-10-09T01:10:05.267Z,89.45
2018-10-09T01:12:40.255Z,89.28
2018-10-09T01:15:14.831Z,89.26
2018-10-09T01:17:49.477Z,89.34
2018-10-09T01:20:31.250Z,89.18
2018-10-09T01:23:07.226Z,89.56
2018-10-09T01:25:42.096Z,89.31
2018-10-09T01:28:16.655Z,89.23
2018-10-09T01:30:51.048Z,89.42
2018-10-09T01:33:25.787Z,89.18
2018-10-09T01:36:00.291Z,89.48
2018-10-09T01:38:34.979Z,89.76
2018-10-09T01:41:09.276Z,89.40
2018-10-09T01:43:43.676Z,89.58
2018-10-09T01:46:18.060Z,89.18
2018-10-09T01:48:52.477Z,89.10
2018-10-09T01:51:28.662Z,89.25
2018-10-09T01:54:03.458Z,88.99
2018-10-09T01:56:38.255Z,88.96
2018-10-09T01:59:12.968Z,89.63
2018-10-09T02:01:47.848Z,88.88
2018-10-09T02:04:22.853Z,89.17
2018-10-09T02:06:57.662Z,89.31
2018-10-09T02:09:32.251Z,89.33
2018-10-09T02:12:06.975Z,89.46
2018-10-09T02:14:41.807Z,89.09
2018-10-09T02:17:16.232Z,88.59
2018-10-09T02:19:50.999Z,88.46
2018-10-09T02:22:25.379Z,88.30
2018-10-09T02:24:59.756Z,88.75
2018-10-09T02:27:34.219Z,88.66
2018-10-09T02:30:09.595Z,89.67
2018-10-09T02:32:44.133Z,89.27
2018-10-09T02:35:19.524Z,89.21
2018-10-09T02:37:53.891Z,89.40
2018-10-09T02:40:29.347Z,88.65
2018-10-09T02:43:03.708Z,88.76
2018-10-09T02:45:38.612Z,89.23
2018-10-09T02:48:12.864Z,89.10
2018-10-09T02:50:47.574Z,88.25
2018-10-09T02:53:22.041Z,88.86
2018-10-09T02:55:57.396Z,88.69
2018-10-09T02:58:32.100Z,88.95
2018-10-09T03:01:06.940Z,88.95
2018-10-09T03:03:41.829Z,89.07
2018-10-09T03:06:16.936Z,88.51
2018-10-09T03:08:51.279Z,88.74
2018-10-09T03:11:26.136Z,88.73
2018-10-09T03:14:00.623Z,88.60
2018-10-09T03:16:35.171Z,88.68
2018-10-09T03:19:10.019Z,88.59
2018-10-09T03:21:44.339Z,88.21
2018-10-09T03:24:18.771Z,89.01
2018-10-09T03:26:53.760Z,88.69
2018-10-09T03:29:28.903Z,88.59
2018-10-09T03:32:03.983Z,88.51
2018-10-09T03:34:38.564Z,88.84
2018-10-09T03:37:13.312Z,88.95
2018-10-09T03:39:48.175Z,88.19
2018-10-09T03:42:22.763Z,88.32
2018-10-09T03:44:57.205Z,88.12
2018-10-09T03:47:32.540Z,88.47
2018-10-09T03:50:07.175Z,88.18
2018-10-09T03:52:41.701Z,88.22
2018-10-09T03:55:16.363Z,88.15
2018-10-09T03:57:51.659Z,88.07
2018-10-09T04:00:26.354Z,87.87
2018-10-09T04:03:01.567Z,88.11
2018-10-09T04:05:36.051Z,88.41
2018-10-09T04:08:10.547Z,87.98
2018-10-09T04:10:45.365Z,87.69
2018-10-09T04:13:19.963Z,87.42
2018-10-09T04:15:54.417Z,87.73
2018-10-09T04:18:28.879Z,87.71
2018-10-09T04:21:03.283Z,88.18
2018-10-09T04:23:38.208Z,88.60
2018-10-09T04:26:13.143Z,88.12
2018-10-09T04:28:47.964Z,88.26
2018-10-09T04:31:22.448Z,88.42
2018-10-09T04:33:57.357Z,88.99
2018-10-09T04:36:32.112Z,89.04
2018-10-09T04:39:08.336Z,89.11
2018-10-09T04:41:43.575Z,88.06
2018-10-09T04:44:18.144Z,88.49
2018-10-09T04:46:53.810Z,88.37
2018-10-09T04:49:28.324Z,88.42
2018-10-09T04:52:03.261Z,88.35
2018-10-09T04:54:38.089Z,88.55
2018-10-09T04:57:12.739Z,87.92
2018-10-09T04:59:47.362Z,88.61
2018-10-09T05:02:22.651Z,88.31
2018-10-09T05:04:57.084Z,88.55
2018-10-09T05:07:32.028Z,88.33
2018-10-09T05:10:06.828Z,88.43
2018-10-09T05:12:41.351Z,88.31
2018-10-09T05:15:16.136Z,88.30
2018-10-09T05:17:50.713Z,88.22
2018-10-09T05:20:26.183Z,87.98
2018-10-09T05:23:00.849Z,87.96
2018-10-09T05:25:35.627Z,88.20
2018-10-09T05:28:12.647Z,88.56
2018-10-09T05:30:47.420Z,88.34
2018-10-09T05:33:22.120Z,88.20
2018-10-09T05:35:56.587Z,88.12
2018-10-09T05:38:31.168Z,87.83
2018-10-09T05:41:05.844Z,87.94
2018-10-09T05:43:51.117Z,88.52
2018-10-09T05:46:25.679Z,88.17
2018-10-09T05:49:00.540Z,87.94
2018-10-09T05:51:35.031Z,88.28
2018-10-09T05:54:09.447Z,88.31
2018-10-09T05:56:44.113Z,87.70
2018-10-09T05:59:18.980Z,87.93
2018-10-09T06:01:53.484Z,87.41
2018-10-09T06:04:28.002Z,88.01
2018-10-09T06:07:02.650Z,87.08
2018-10-09T06:09:37.335Z,87.25
2018-10-09T06:12:12.163Z,87.26
2018-10-09T06:14:46.962Z,87.16
2018-10-09T06:17:21.529Z,87.67
2018-10-09T06:19:56.589Z,86.96
2018-10-09T06:22:31.131Z,87.14
2018-10-09T06:25:06.027Z,86.81
2018-10-09T06:27:40.880Z,86.81
2018-10-09T06:30:15.418Z,86.09
2018-10-09T06:32:50.435Z,85.89
2018-10-09T06:35:24.982Z,86.59
2018-10-09T06:37:59.391Z,85.98
2018-10-09T06:40:33.860Z,85.80
2018-10-09T06:43:08.783Z,86.53
2018-10-09T06:45:43.385Z,85.97
2018-10-09T06:48:18.202Z,86.59
2018-10-09T06:50:53.249Z,86.46
2018-10-09T06:53:28.108Z,85.31
2018-10-09T06:56:03.204Z,85.70
2018-10-09T06:58:37.835Z,86.11
2018-10-09T07:01:13.159Z,85.55
2018-10-09T07:03:47.632Z,84.59
2018-10-09T07:06:23.072Z,84.21
2018-10-09T07:08:57.443Z,84.19
2018-10-09T07:11:31.741Z,84.48
2018-10-09T07:14:07.104Z,83.36
2018-10-09T07:16:41.392Z,83.59
2018-10-09T07:19:15.816Z,83.41
2018-10-09T07:21:51.495Z,83.16
2018-10-09T07:24:25.783Z,83.49
2018-10-09T07:27:00.315Z,83.66
2018-10-09T07:29:34.724Z,84.32
2018-10-09T07:32:10.026Z,84.19
2018-10-09T07:34:44.456Z,84.35
2018-10-09T07:37:20.370Z,83.99
2018-10-09T07:39:54.791Z,84.44
2018-10-09T07:42:29.458Z,82.91
2018-10-09T07:45:04.265Z,82.54
2018-10-09T07:47:38.672Z,82.44
2018-10-09T07:50:13.092Z,82.83
2018-10-09T07:52:47.792Z,84.55
2018-10-09T07:55:22.479Z,83.23
2018-10-09T07:57:57.271Z,83.67
2018-10-09T08:00:31.800Z,83.61
2018-10-09T08:03:06.451Z,84.45
2018-10-09T08:05:41.319Z,83.49
2018-10-09T08:08:16.311Z,83.62
2018-10-09T08:10:51.624Z,84.08
2018-10-09T08:13:26.455Z,82.97
2018-10-09T08:16:01.422Z,81.89
2018-10-09T08:18:35.864Z,83.02
2018-10-09T08:21:10.634Z,81.38
2018-10-09T08:23:45.000Z,81.05
2018-10-09T08:26:19.420Z,80.17
2018-10-09T08:28:54.048Z,80.39
2018-10-09T08:31:28.880Z,79.99
2018-10-09T08:34:03.833Z,81.20
2018-10-09T08:36:38.373Z,81.47
2018-10-09T08:39:13.407Z,79.75
2018-10-09T08:41:47.777Z,80.34
2018-10-09T08:44:22.361Z,79.51
2018-10-09T08:46:57.092Z,79.11
2018-10-09T08:49:31.663Z,78.28
2018-10-09T08:52:06.892Z,78.11
2018-10-09T08:54:41.903Z,75.03
2018-10-09T08:57:16.555Z,74.98
2018-10-09T08:59:51.328Z,74.40
2018-10-09T09:02:25.746Z,75.91
2018-10-09T09:05:00.343Z,74.22
2018-10-09T09:07:35.063Z,74.54
2018-10-09T09:10:09.900Z,76.62
2018-10-09T09:12:44.616Z,75.49
2018-10-09T09:15:19.252Z,75.64
2018-10-09T09:17:54.048Z,75.75
2018-10-09T09:20:28.951Z,74.71
2018-10-09T09:23:03.752Z,74.23
2018-10-09T09:25:38.668Z,72.57
2018-10-09T09:28:13.195Z,73.20
2018-10-09T09:30:47.716Z,72.47
2018-10-09T09:33:22.169Z,73.11
2018-10-09T09:35:58.060Z,73.13
2018-10-09T09:38:32.937Z,71.26
2018-10-09T09:41:08.215Z,74.74
2018-10-09T09:43:42.782Z,73.78
2018-10-09T09:46:17.727Z,73.16
2018-10-09T09:48:53.697Z,72.93
2018-10-09T09:51:28.289Z,72.84
2018-10-09T09:54:02.752Z,72.37
2018-10-09T09:56:37.180Z,72.94
2018-10-09T09:59:12.075Z,69.57
2018-10-09T10:01:46.699Z,70.46
2018-10-09T10:04:21.482Z,68.69
2018-10-09T10:06:56.167Z,71.17
2018-10-09T10:09:30.688Z,69.53
2018-10-09T10:12:05.423Z,70.72
2018-10-09T10:14:39.736Z,70.72
2018-10-09T10:17:14.385Z,72.31
2018-10-09T10:19:49.320Z,70.72
2018-10-09T10:22:23.723Z,72.96
2018-10-09T10:24:58.512Z,71.18
2018-10-09T10:27:33.193Z,69.57
2018-10-09T10:30:07.588Z,68.87
2018-10-09T10:32:41.988Z,68.15
2018-10-09T10:35:16.287Z,69.62
2018-10-09T10:37:51.131Z,68.99
2018-10-09T10:40:26.047Z,68.04
2018-10-09T10:43:00.361Z,67.06
2018-10-09T10:45:35.091Z,68.59
2018-10-09T10:48:09.755Z,70.44
2018-10-09T10:50:44.359Z,67.91
2018-10-09T10:53:19.243Z,68.52
2018-10-09T10:55:54.251Z,68.91
2018-10-09T10:58:29.147Z,69.63
2018-10-09T11:01:04.023Z,69.59
2018-10-09T11:03:39.276Z,69.92
2018-10-09T11:06:14.187Z,70.10
2018-10-09T11:08:50.076Z,70.03
2018-10-09T11:11:24.707Z,71.35
2018-10-09T11:13:58.977Z,68.85
2018-10-09T11:16:33.778Z,69.64
2018-10-09T11:19:09.103Z,67.73
2018-10-09T11:21:44.141Z,68.05
2018-10-09T11:24:19.180Z,69.87
2018-10-09T11:26:53.603Z,69.43
2018-10-09T11:29:28.207Z,70.13
2018-10-09T11:32:03.046Z,69.00
2018-10-09T11:34:37.965Z,68.98
2018-10-09T11:37:12.990Z,69.86
2018-10-09T11:39:48.223Z,68.80
2018-10-09T11:42:23.016Z,68.20
2018-10-09T11:44:58.412Z,67.95
2018-10-09T11:47:33.264Z,69.12
2018-10-09T11:50:08.676Z,68.09
2018-10-09T11:52:43.460Z,66.99
2018-10-09T11:55:18.200Z,67.93
2018-10-09T11:57:52.660Z,67.82
2018-10-09T12:00:27.704Z,68.53
2018-10-09T12:03:02.025Z,67.68
2018-10-09T12:05:36.914Z,65.80
2018-10-09T12:08:11.454Z,65.02
2018-10-09T12:10:46.411Z,64.43
2018-10-09T12:13:21.156Z,63.61
2018-10-09T12:15:55.697Z,65.80
2018-10-09T12:18:30.295Z,63.85
2018-10-09T12:21:04.681Z,62.89
2018-10-09T12:23:39.530Z,64.03
2018-10-09T12:26:14.739Z,63.38
2018-10-09T12:28:49.268Z,62.93
2018-10-09T12:31:23.695Z,63.91
2018-10-09T12:33:58.035Z,65.18
2018-10-09T12:36:32.385Z,64.64
2018-10-09T12:39:09.907Z,65.18
2018-10-09T12:41:45.846Z,64.08
2018-10-09T12:44:20.333Z,64.50
2018-10-09T12:46:55.088Z,61.90
2018-10-09T12:49:29.557Z,59.31
2018-10-09T12:52:04.390Z,59.43
2018-10-09T12:54:39.060Z,60.12
2018-10-09T12:57:13.429Z,63.20
2018-10-09T12:59:48.159Z,60.02
2018-10-09T13:02:23.082Z,60.59
2018-10-09T13:04:57.400Z,59.89
2018-10-09T13:07:31.866Z,58.02
2018-10-09T13:10:06.218Z,57.54
2018-10-09T13:12:41.047Z,58.71
2018-10-09T13:15:15.367Z,58.71
2018-10-09T13:17:50.084Z,61.41
2018-10-09T13:20:25.286Z,58.18
2018-10-09T13:23:00.028Z,58.97
2018-10-09T13:25:34.781Z,59.73
2018-10-09T13:28:09.541Z,61.34
2018-10-09T13:30:44.439Z,61.55
2018-10-09T13:33:19.079Z,62.72
2018-10-09T13:35:54.040Z,61.80
2018-10-09T13:38:28.887Z,62.49
2018-10-09T13:41:03.896Z,62.34
2018-10-09T13:43:38.592Z,62.36
2018-10-09T13:46:13.597Z,61.28
2018-10-09T13:48:50.295Z,62.99
2018-10-09T13:51:24.844Z,62.79
2018-10-09T13:53:59.803Z,63.75
2018-10-09T13:56:34.780Z,64.84
2018-10-09T13:59:09.751Z,65.23
2018-10-09T14:01:44.473Z,65.98
2018-10-09T14:04:19.267Z,66.15
2018-10-09T14:06:53.968Z,68.22
2018-10-09T14:09:28.475Z,66.46
2018-10-09T14:12:03.681Z,63.15
2018-10-09T14:14:38.403Z,64.19
2018-10-09T14:17:13.168Z,63.11
2018-10-09T14:19:48.290Z,63.99
2018-10-09T14:22:22.709Z,63.52
2018-10-09T14:24:57.299Z,63.67
2018-10-09T14:27:31.797Z,64.84
2018-10-09T14:30:20.136Z,63.54
2018-10-09T14:32:54.716Z,64.97
2018-10-09T14:35:29.345Z,62.52
2018-10-09T14:38:04.284Z,63.52
2018-10-09T14:40:39.009Z,63.54
2018-10-09T14:43:13.467Z,63.63
2018-10-09T14:45:47.922Z,64.01
2018-10-09T14:48:23.120Z,63.14
2018-10-09T14:50:57.547Z,64.82
2018-10-09T14:53:31.968Z,64.89
2018-10-09T14:56:07.222Z,64.80
2018-10-09T14:58:41.760Z,66.36
2018-10-09T15:01:16.888Z,66.30
2018-10-09T15:03:51.908Z,65.02
2018-10-09T15:06:26.587Z,66.12
2018-10-09T15:09:01.192Z,65.63
2018-10-09T15:11:35.540Z,66.91
2018-10-09T15:14:11.485Z,67.91
2018-10-09T15:16:46.064Z,65.91
2018-10-09T15:19:21.052Z,65.75
2018-10-09T15:21:55.628Z,67.98
2018-10-09T15:24:30.131Z,68.44
2018-10-09T15:27:05.279Z,68.95
2018-10-09T15:29:39.935Z,67.34
2018-10-09T15:32:26.748Z,69.85
2018-10-09T15:35:01.151Z,68.61
2018-10-09T15:37:35.916Z,70.22
2018-10-09T15:40:11.344Z,70.97
2018-10-09T15:42:46.221Z,72.84
2018-10-09T15:45:20.658Z,72.72
2018-10-09T15:47:55.590Z,73.73
2018-10-09T15:50:29.898Z,73.73
2018-10-09T15:53:08.349Z,73.10
2018-10-09T15:55:50.446Z,74.50
2018-10-09T15:58:31.434Z,74.84
2018-10-09T16:01:06.168Z,73.44
2018-10-09T16:03:48.410Z,74.10
2018-10-09T16:06:29.573Z,74.18
2018-10-09T16:09:10.322Z,74.82
2018-10-09T16:11:45.330Z,76.18
2018-10-09T16:14:20.263Z,75.29
2018-10-09T16:16:55.783Z,76.30
2018-10-09T16:19:32.393Z,76.48
2018-10-09T16:22:08.939Z,77.06
2018-10-09T16:24:53.171Z,77.04
2018-10-09T16:27:27.863Z,77.44
2018-10-09T16:30:03.760Z,78.25
2018-10-09T16:32:44.368Z,77.81
2018-10-09T16:35:19.312Z,78.34
2018-10-09T16:37:53.774Z,78.10
2018-10-09T16:40:28.367Z,79.55
2018-10-09T16:43:04.376Z,79.61
2018-10-09T16:45:38.918Z,78.99
2018-10-09T16:48:13.868Z,79.28
2018-10-09T16:50:48.308Z,79.42
2018-10-09T16:53:22.772Z,79.18
2018-10-09T16:55:57.596Z,79.54
2018-10-09T16:58:32.120Z,79.31
2018-10-09T17:01:12.418Z,80.16
2018-10-09T17:03:46.874Z,79.68
2018-10-09T17:06:22.091Z,80.71
2018-10-09T17:08:56.828Z,80.06
2018-10-09T17:11:31.738Z,80.70
2018-10-09T17:14:06.699Z,80.07
2018-10-09T17:16:41.120Z,79.57
2018-10-09T17:19:15.628Z,80.50
2018-10-09T17:21:50.047Z,80.71
2018-10-09T17:24:24.441Z,80.29
2018-10-09T17:26:58.941Z,79.81
2018-10-09T17:29:33.713Z,79.85
2018-10-09T17:32:08.296Z,80.97
2018-10-09T17:34:43.030Z,81.75
2018-10-09T17:37:17.478Z,81.10
2018-10-09T17:39:52.451Z,80.98
2018-10-09T17:42:32.394Z,81.20
2018-10-09T17:45:07.124Z,81.18
2018-10-09T17:47:41.803Z,80.40
2018-10-09T17:50:16.487Z,80.53
2018-10-09T17:52:51.915Z,80.08
2018-10-09T17:55:26.428Z,80.35
2018-10-09T17:58:01.156Z,80.09
2018-10-09T18:00:35.663Z,81.14
2018-10-09T18:03:10.007Z,80.78
2018-10-09T18:05:46.826Z,80.19
2018-10-09T18:08:21.460Z,80.72
2018-10-09T18:10:55.927Z,81.20
2018-10-09T18:13:30.403Z,81.73
2018-10-09T18:16:05.113Z,81.73
2018-10-09T18:18:39.944Z,81.28
2018-10-09T18:21:14.609Z,80.86
2018-10-09T18:23:49.371Z,80.70
2018-10-09T18:26:23.844Z,80.58
2018-10-09T18:28:58.521Z,80.73
2018-10-09T18:31:32.964Z,79.89
2018-10-09T18:34:07.487Z,80.22
2018-10-09T18:36:42.573Z,80.38
2018-10-09T18:39:17.789Z,80.43
2018-10-09T18:41:52.827Z,80.60
2018-10-09T18:44:27.628Z,81.70
2018-10-09T18:47:02.111Z,81.74
2018-10-09T18:49:37.854Z,81.42
2018-10-09T18:52:12.806Z,81.66
2018-10-09T18:54:47.807Z,81.54
2018-10-09T18:57:22.635Z,81.00
2018-10-09T19:00:01.085Z,81.26
2018-10-09T19:02:36.035Z,81.02
2018-10-09T19:05:11.333Z,81.05
2018-10-09T19:07:45.654Z,80.75
2018-10-09T19:10:20.395Z,81.20
2018-10-09T19:12:55.083Z,80.58
2018-10-09T19:15:29.672Z,80.63
2018-10-09T19:18:04.356Z,80.82
2018-10-09T19:20:39.391Z,80.82
2018-10-09T19:23:14.551Z,81.29
2018-10-09T19:25:49.075Z,81.53
2018-10-09T19:28:24.847Z,81.76
2018-10-09T19:30:59.592Z,81.96
2018-10-09T19:33:34.012Z,81.31
2018-10-09T19:36:09.797Z,81.16
2018-10-09T19:38:44.428Z,81.18
2018-10-09T19:41:18.941Z,81.96
2018-10-09T19:43:53.751Z,81.60
2018-10-09T19:46:28.761Z,81.23
2018-10-09T19:49:07.336Z,81.41
2018-10-09T19:51:42.305Z,81.57
2018-10-09T19:54:16.965Z,81.07
2018-10-09T19:56:51.899Z,81.41
2018-10-09T19:59:27.145Z,81.65
2018-10-09T20:02:02.424Z,81.46
2018-10-09T20:04:37.251Z,81.44
2018-10-09T20:07:13.963Z,81.01
2018-10-09T20:09:48.608Z,81.30
2018-10-09T20:12:23.644Z,81.31
2018-10-09T20:14:58.316Z,81.65
2018-10-09T20:17:33.504Z,81.77
2018-10-09T20:20:08.210Z,81.75
2018-10-09T20:22:49.516Z,81.49
2018-10-09T20:25:24.278Z,81.85
2018-10-09T20:27:59.231Z,81.05
2018-10-09T20:30:34.296Z,81.37
2018-10-09T20:33:08.814Z,81.37
2018-10-09T20:35:43.779Z,81.05
2018-10-09T20:38:19.324Z,81.42
2018-10-09T20:40:55.303Z,81.79
2018-10-09T20:43:30.986Z,81.31
2018-10-09T20:46:05.624Z,81.01
2018-10-09T20:48:42.383Z,81.57
2018-10-09T20:51:16.990Z,81.69
2018-10-09T20:53:51.495Z,81.24
2018-10-09T20:56:26.284Z,81.47
2018-10-09T20:59:02.159Z,81.60
2018-10-09T21:01:37.265Z,81.89
2018-10-09T21:04:12.123Z,81.13
2018-10-09T21:06:46.785Z,81.76
2018-10-09T21:09:21.447Z,81.79
2018-10-09T21:11:56.683Z,81.74
2018-10-09T21:14:31.990Z,81.75
2018-10-09T21:17:06.889Z,81.59
2018-10-09T21:19:42.756Z,82.33
2018-10-09T21:22:18.097Z,82.18
2018-10-09T21:24:52.476Z,82.24
2018-10-09T21:27:27.320Z,82.00
2018-10-09T21:30:01.760Z,82.45
2018-10-09T21:32:36.301Z,82.08
2018-10-09T21:35:12.368Z,81.95
2018-10-09T21:37:46.922Z,81.72
2018-10-09T21:40:21.601Z,82.00
2018-10-09T21:42:56.138Z,82.21
2018-10-09T21:45:31.815Z,81.88
2018-10-09T21:48:06.745Z,82.95
2018-10-09T21:50:41.513Z,82.69
2018-10-09T21:53:15.964Z,82.65
2018-10-09T21:55:50.804Z,82.00
2018-10-09T21:58:25.465Z,82.08
2018-10-09T22:01:05.199Z,82.33
2018-10-09T22:03:40.384Z,82.70
2018-10-09T22:06:14.869Z,82.93
2018-10-09T22:08:49.549Z,83.00
2018-10-09T22:11:24.204Z,83.02
2018-10-09T22:13:58.624Z,83.79
2018-10-09T22:16:33.700Z,84.45
2018-10-09T22:19:08.435Z,84.71
2018-10-09T22:21:43.345Z,85.70
2018-10-09T22:24:18.326Z,86.30
2018-10-09T22:26:53.296Z,86.42
2018-10-09T22:29:27.571Z,86.99
2018-10-09T22:32:02.011Z,87.24
2018-10-09T22:34:36.612Z,87.00
2018-10-09T22:37:11.760Z,87.01
2018-10-09T22:39:46.811Z,87.11
2018-10-09T22:42:21.959Z,86.95
2018-10-09T22:44:56.257Z,86.67
2018-10-09T22:47:30.783Z,86.63
2018-10-09T22:50:05.479Z,86.80
2018-10-09T22:52:39.999Z,86.67
2018-10-09T22:55:14.664Z,86.67
2018-10-09T22:57:49.203Z,86.76
2018-10-09T23:00:24.377Z,86.51
2018-10-09T23:02:58.717Z,86.40
2018-10-09T23:05:34.100Z,86.75
2018-10-09T23:08:09.139Z,86.48
2018-10-09T23:10:44.208Z,86.61
2018-10-09T23:13:18.833Z,86.23
2018-10-09T23:15:53.659Z,86.61
2018-10-09T23:18:28.199Z,86.39
2018-10-09T23:21:02.715Z,86.72
2018-10-09T23:23:38.013Z,87.06
2018-10-09T23:26:12.648Z,86.79
2018-10-09T23:28:47.080Z,87.36
2018-10-09T23:31:21.433Z,87.21
2018-10-09T23:33:56.184Z,87.53
2018-10-09T23:36:30.902Z,88.03
2018-10-09T23:39:07.223Z,87.98
2018-10-09T23:41:41.983Z,87.67
2018-10-09T23:44:16.908Z,87.51
2018-10-09T23:46:51.304Z,87.50
2018-10-09T23:49:25.720Z,87.50
2018-10-09T23:52:00.218Z,87.59
2018-10-09T23:54:34.942Z,87.04
2018-10-09T23:57:09.743Z,87.63
2018-10-09T23:59:44.551Z,87.53
